sensor_id;sensor_type;location;lat;lon;timestamp;P1;durP1;ratioP1;P2;durP2;ratioP2
71947;SDS011;63257;55.082;38.772;2023-07-16T00:01:54;27.90;;;16.08;;
71947;SDS011;63257;55.082;38.772;2023-07-16T00:04:20;27.98;;;16.17;;
71947;SDS011;63257;55.082;38.772;2023-07-16T00:06:46;28.45;;;16.80;;
71947;SDS011;63257;55.082;38.772;2023-07-16T00:09:11;32.00;;;16.48;;
71947;SDS011;63257;55.082;38.772;2023-07-16T00:11:37;35.63;;;17.73;;
71947;SDS011;63257;55.082;38.772;2023-07-16T00:14:03;29.15;;;16.98;;
71947;SDS011;63257;55.082;38.772;2023-07-16T00:16:29;31.02;;;17.67;;
71947;SDS011;63257;55.082;38.772;2023-07-16T00:18:54;31.80;;;17.63;;
71947;SDS011;63257;55.082;38.772;2023-07-16T00:21:20;36.43;;;16.77;;
71947;SDS011;63257;55.082;38.772;2023-07-16T00:23:46;33.85;;;18.52;;
71947;SDS011;63257;55.082;38.772;2023-07-16T00:26:12;36.23;;;18.40;;
71947;SDS011;63257;55.082;38.772;2023-07-16T00:28:38;35.40;;;18.42;;
71947;SDS011;63257;55.082;38.772;2023-07-16T00:31:04;36.45;;;19.77;;
71947;SDS011;63257;55.082;38.772;2023-07-16T00:33:32;38.30;;;19.15;;
71947;SDS011;63257;55.082;38.772;2023-07-16T00:35:58;34.58;;;19.00;;
71947;SDS011;63257;55.082;38.772;2023-07-16T00:38:24;36.65;;;19.42;;
71947;SDS011;63257;55.082;38.772;2023-07-16T00:40:50;35.13;;;18.83;;
71947;SDS011;63257;55.082;38.772;2023-07-16T00:43:15;33.28;;;18.42;;
71947;SDS011;63257;55.082;38.772;2023-07-16T00:45:41;39.72;;;19.98;;
71947;SDS011;63257;55.082;38.772;2023-07-16T00:48:10;38.53;;;19.45;;
71947;SDS011;63257;55.082;38.772;2023-07-16T00:50:39;35.00;;;18.63;;
71947;SDS011;63257;55.082;38.772;2023-07-16T00:53:06;35.60;;;19.73;;
71947;SDS011;63257;55.082;38.772;2023-07-16T00:55:34;38.55;;;19.10;;
71947;SDS011;63257;55.082;38.772;2023-07-16T00:58:05;39.00;;;19.27;;
71947;SDS011;63257;55.082;38.772;2023-07-16T01:00:32;34.25;;;18.95;;
71947;SDS011;63257;55.082;38.772;2023-07-16T01:03:04;36.03;;;19.88;;
71947;SDS011;63257;55.082;38.772;2023-07-16T01:08:09;36.42;;;18.55;;
71947;SDS011;63257;55.082;38.772;2023-07-16T01:10:39;32.83;;;17.93;;
71947;SDS011;63257;55.082;38.772;2023-07-16T01:13:07;28.08;;;17.25;;
71947;SDS011;63257;55.082;38.772;2023-07-16T01:15:33;33.22;;;18.00;;
71947;SDS011;63257;55.082;38.772;2023-07-16T01:17:59;30.80;;;17.25;;
71947;SDS011;63257;55.082;38.772;2023-07-16T01:20:26;32.22;;;17.58;;
71947;SDS011;63257;55.082;38.772;2023-07-16T01:23:01;26.17;;;16.40;;
71947;SDS011;63257;55.082;38.772;2023-07-16T01:31:03;27.60;;;15.27;;
71947;SDS011;63257;55.082;38.772;2023-07-16T01:33:31;28.30;;;15.80;;
71947;SDS011;63257;55.082;38.772;2023-07-16T01:35:58;24.13;;;14.47;;
71947;SDS011;63257;55.082;38.772;2023-07-16T01:38:25;26.55;;;14.73;;
71947;SDS011;63257;55.082;38.772;2023-07-16T01:40:51;27.33;;;14.80;;
71947;SDS011;63257;55.082;38.772;2023-07-16T01:43:17;25.60;;;14.80;;
71947;SDS011;63257;55.082;38.772;2023-07-16T01:45:43;25.17;;;14.30;;
71947;SDS011;63257;55.082;38.772;2023-07-16T01:48:24;22.92;;;13.73;;
71947;SDS011;63257;55.082;38.772;2023-07-16T01:50:56;24.00;;;14.17;;
71947;SDS011;63257;55.082;38.772;2023-07-16T01:53:22;24.15;;;13.77;;
71947;SDS011;63257;55.082;38.772;2023-07-16T01:55:48;23.52;;;13.82;;
71947;SDS011;63257;55.082;38.772;2023-07-16T01:58:13;25.67;;;14.67;;
71947;SDS011;63257;55.082;38.772;2023-07-16T02:00:39;31.60;;;14.82;;
71947;SDS011;63257;55.082;38.772;2023-07-16T02:03:05;22.27;;;13.60;;
71947;SDS011;63257;55.082;38.772;2023-07-16T02:05:31;23.63;;;14.80;;
71947;SDS011;63257;55.082;38.772;2023-07-16T02:07:57;23.38;;;13.60;;
71947;SDS011;63257;55.082;38.772;2023-07-16T02:10:23;23.85;;;13.65;;
71947;SDS011;63257;55.082;38.772;2023-07-16T02:12:49;24.23;;;13.80;;
71947;SDS011;63257;55.082;38.772;2023-07-16T02:15:15;23.90;;;13.73;;
71947;SDS011;63257;55.082;38.772;2023-07-16T02:17:42;28.50;;;14.32;;
71947;SDS011;63257;55.082;38.772;2023-07-16T02:20:08;23.65;;;13.57;;
71947;SDS011;63257;55.082;38.772;2023-07-16T02:22:38;22.43;;;13.00;;
71947;SDS011;63257;55.082;38.772;2023-07-16T02:25:05;19.98;;;12.80;;
71947;SDS011;63257;55.082;38.772;2023-07-16T02:27:31;26.23;;;13.23;;
71947;SDS011;63257;55.082;38.772;2023-07-16T02:29:57;21.23;;;13.45;;
71947;SDS011;63257;55.082;38.772;2023-07-16T02:32:23;21.73;;;13.17;;
71947;SDS011;63257;55.082;38.772;2023-07-16T02:34:49;21.42;;;12.95;;
71947;SDS011;63257;55.082;38.772;2023-07-16T02:37:15;21.17;;;12.98;;
71947;SDS011;63257;55.082;38.772;2023-07-16T02:39:41;21.03;;;13.40;;
71947;SDS011;63257;55.082;38.772;2023-07-16T02:42:08;22.05;;;13.00;;
71947;SDS011;63257;55.082;38.772;2023-07-16T02:44:34;21.42;;;13.43;;
71947;SDS011;63257;55.082;38.772;2023-07-16T02:47:03;23.27;;;13.10;;
71947;SDS011;63257;55.082;38.772;2023-07-16T02:49:29;23.25;;;12.93;;
71947;SDS011;63257;55.082;38.772;2023-07-16T02:51:57;21.17;;;13.88;;
71947;SDS011;63257;55.082;38.772;2023-07-16T02:54:23;22.80;;;13.25;;
71947;SDS011;63257;55.082;38.772;2023-07-16T02:56:48;21.43;;;12.50;;
71947;SDS011;63257;55.082;38.772;2023-07-16T02:59:14;25.30;;;14.25;;
71947;SDS011;63257;55.082;38.772;2023-07-16T03:01:40;19.73;;;13.23;;
71947;SDS011;63257;55.082;38.772;2023-07-16T03:04:06;20.80;;;12.65;;
71947;SDS011;63257;55.082;38.772;2023-07-16T03:06:32;19.67;;;13.60;;
71947;SDS011;63257;55.082;38.772;2023-07-16T03:08:57;22.35;;;13.20;;
71947;SDS011;63257;55.082;38.772;2023-07-16T03:11:23;21.92;;;13.52;;
71947;SDS011;63257;55.082;38.772;2023-07-16T03:13:49;22.00;;;12.55;;
71947;SDS011;63257;55.082;38.772;2023-07-16T03:16:15;25.15;;;14.13;;
71947;SDS011;63257;55.082;38.772;2023-07-16T03:18:42;21.52;;;12.45;;
71947;SDS011;63257;55.082;38.772;2023-07-16T03:21:08;22.87;;;14.20;;
71947;SDS011;63257;55.082;38.772;2023-07-16T03:23:34;21.52;;;13.13;;
71947;SDS011;63257;55.082;38.772;2023-07-16T03:25:59;22.75;;;13.98;;
71947;SDS011;63257;55.082;38.772;2023-07-16T03:28:26;19.92;;;13.07;;
71947;SDS011;63257;55.082;38.772;2023-07-16T03:30:52;21.42;;;13.30;;
71947;SDS011;63257;55.082;38.772;2023-07-16T03:33:19;20.88;;;13.02;;
71947;SDS011;63257;55.082;38.772;2023-07-16T03:35:46;20.00;;;12.95;;
71947;SDS011;63257;55.082;38.772;2023-07-16T03:38:13;20.37;;;12.93;;
71947;SDS011;63257;55.082;38.772;2023-07-16T03:40:39;22.00;;;13.38;;
71947;SDS011;63257;55.082;38.772;2023-07-16T03:43:07;24.88;;;13.88;;
71947;SDS011;63257;55.082;38.772;2023-07-16T03:45:33;20.38;;;12.77;;
71947;SDS011;63257;55.082;38.772;2023-07-16T03:47:59;20.23;;;13.10;;
71947;SDS011;63257;55.082;38.772;2023-07-16T03:50:25;20.05;;;12.73;;
71947;SDS011;63257;55.082;38.772;2023-07-16T03:52:51;22.70;;;13.20;;
71947;SDS011;63257;55.082;38.772;2023-07-16T03:55:17;20.00;;;12.88;;
71947;SDS011;63257;55.082;38.772;2023-07-16T03:57:43;19.48;;;12.63;;
71947;SDS011;63257;55.082;38.772;2023-07-16T04:00:08;23.37;;;13.47;;
71947;SDS011;63257;55.082;38.772;2023-07-16T04:02:44;17.25;;;12.30;;
71947;SDS011;63257;55.082;38.772;2023-07-16T04:05:16;17.40;;;11.25;;
71947;SDS011;63257;55.082;38.772;2023-07-16T04:07:41;20.80;;;12.50;;
71947;SDS011;63257;55.082;38.772;2023-07-16T04:10:07;19.23;;;11.50;;
71947;SDS011;63257;55.082;38.772;2023-07-16T04:12:33;18.02;;;11.73;;
71947;SDS011;63257;55.082;38.772;2023-07-16T04:14:59;15.80;;;11.23;;
71947;SDS011;63257;55.082;38.772;2023-07-16T04:17:25;16.90;;;11.57;;
71947;SDS011;63257;55.082;38.772;2023-07-16T04:19:51;17.00;;;11.05;;
71947;SDS011;63257;55.082;38.772;2023-07-16T04:22:17;18.10;;;10.82;;
71947;SDS011;63257;55.082;38.772;2023-07-16T04:24:43;15.97;;;11.07;;
71947;SDS011;63257;55.082;38.772;2023-07-16T04:27:09;16.17;;;10.68;;
71947;SDS011;63257;55.082;38.772;2023-07-16T04:29:35;16.90;;;10.13;;
71947;SDS011;63257;55.082;38.772;2023-07-16T04:32:01;14.80;;;10.43;;
71947;SDS011;63257;55.082;38.772;2023-07-16T04:34:28;16.20;;;11.27;;
71947;SDS011;63257;55.082;38.772;2023-07-16T04:36:54;16.65;;;11.07;;
71947;SDS011;63257;55.082;38.772;2023-07-16T04:39:20;16.35;;;11.30;;
71947;SDS011;63257;55.082;38.772;2023-07-16T04:41:45;17.30;;;11.35;;
71947;SDS011;63257;55.082;38.772;2023-07-16T04:44:11;17.57;;;11.23;;
71947;SDS011;63257;55.082;38.772;2023-07-16T04:46:37;18.80;;;11.13;;
71947;SDS011;63257;55.082;38.772;2023-07-16T04:49:04;15.90;;;10.87;;
71947;SDS011;63257;55.082;38.772;2023-07-16T04:51:30;17.23;;;11.30;;
71947;SDS011;63257;55.082;38.772;2023-07-16T04:53:56;18.25;;;11.70;;
71947;SDS011;63257;55.082;38.772;2023-07-16T04:56:22;17.87;;;12.20;;
71947;SDS011;63257;55.082;38.772;2023-07-16T04:58:47;21.38;;;13.40;;
71947;SDS011;63257;55.082;38.772;2023-07-16T05:01:13;19.70;;;12.50;;
71947;SDS011;63257;55.082;38.772;2023-07-16T05:03:39;20.45;;;13.20;;
71947;SDS011;63257;55.082;38.772;2023-07-16T05:06:05;21.77;;;13.10;;
71947;SDS011;63257;55.082;38.772;2023-07-16T05:08:31;19.15;;;12.98;;
71947;SDS011;63257;55.082;38.772;2023-07-16T05:10:56;19.63;;;13.15;;
71947;SDS011;63257;55.082;38.772;2023-07-16T05:13:22;21.80;;;13.98;;
71947;SDS011;63257;55.082;38.772;2023-07-16T05:15:48;22.88;;;14.90;;
71947;SDS011;63257;55.082;38.772;2023-07-16T05:18:15;22.67;;;14.70;;
71947;SDS011;63257;55.082;38.772;2023-07-16T05:20:41;24.35;;;14.80;;
71947;SDS011;63257;55.082;38.772;2023-07-16T05:23:07;24.50;;;15.93;;
71947;SDS011;63257;55.082;38.772;2023-07-16T05:25:33;24.42;;;15.45;;
71947;SDS011;63257;55.082;38.772;2023-07-16T05:27:58;24.80;;;15.73;;
71947;SDS011;63257;55.082;38.772;2023-07-16T05:30:24;26.40;;;15.95;;
71947;SDS011;63257;55.082;38.772;2023-07-16T05:32:50;24.43;;;14.97;;
71947;SDS011;63257;55.082;38.772;2023-07-16T05:35:15;22.55;;;13.57;;
71947;SDS011;63257;55.082;38.772;2023-07-16T05:37:41;23.87;;;14.13;;
71947;SDS011;63257;55.082;38.772;2023-07-16T05:40:07;22.95;;;12.88;;
71947;SDS011;63257;55.082;38.772;2023-07-16T05:42:36;20.65;;;14.65;;
71947;SDS011;63257;55.082;38.772;2023-07-16T05:45:02;23.75;;;15.48;;
71947;SDS011;63257;55.082;38.772;2023-07-16T05:47:31;21.97;;;15.00;;
71947;SDS011;63257;55.082;38.772;2023-07-16T05:49:57;22.20;;;13.25;;
71947;SDS011;63257;55.082;38.772;2023-07-16T05:52:22;20.37;;;13.40;;
71947;SDS011;63257;55.082;38.772;2023-07-16T05:54:48;20.38;;;13.80;;
71947;SDS011;63257;55.082;38.772;2023-07-16T05:57:14;23.20;;;15.15;;
71947;SDS011;63257;55.082;38.772;2023-07-16T05:59:40;21.77;;;14.47;;
71947;SDS011;63257;55.082;38.772;2023-07-16T06:02:06;20.45;;;14.40;;
71947;SDS011;63257;55.082;38.772;2023-07-16T06:04:32;19.70;;;12.55;;
71947;SDS011;63257;55.082;38.772;2023-07-16T06:06:58;17.57;;;12.60;;
71947;SDS011;63257;55.082;38.772;2023-07-16T06:09:23;17.58;;;12.48;;
71947;SDS011;63257;55.082;38.772;2023-07-16T06:11:50;16.88;;;11.82;;
71947;SDS011;63257;55.082;38.772;2023-07-16T06:14:16;17.50;;;12.00;;
71947;SDS011;63257;55.082;38.772;2023-07-16T06:16:41;15.43;;;11.90;;
71947;SDS011;63257;55.082;38.772;2023-07-16T06:19:07;15.23;;;11.10;;
71947;SDS011;63257;55.082;38.772;2023-07-16T06:21:33;15.63;;;11.03;;
71947;SDS011;63257;55.082;38.772;2023-07-16T06:24:00;15.55;;;10.60;;
71947;SDS011;63257;55.082;38.772;2023-07-16T06:26:26;16.80;;;11.63;;
71947;SDS011;63257;55.082;38.772;2023-07-16T06:28:51;15.20;;;11.43;;
71947;SDS011;63257;55.082;38.772;2023-07-16T06:31:17;14.40;;;9.98;;
71947;SDS011;63257;55.082;38.772;2023-07-16T06:33:44;14.23;;;10.32;;
71947;SDS011;63257;55.082;38.772;2023-07-16T06:36:12;15.50;;;10.52;;
71947;SDS011;63257;55.082;38.772;2023-07-16T06:38:38;18.88;;;12.57;;
71947;SDS011;63257;55.082;38.772;2023-07-16T06:41:04;14.87;;;10.93;;
71947;SDS011;63257;55.082;38.772;2023-07-16T06:43:30;14.57;;;9.98;;
71947;SDS011;63257;55.082;38.772;2023-07-16T06:45:56;15.10;;;10.43;;
71947;SDS011;63257;55.082;38.772;2023-07-16T06:48:22;15.30;;;11.48;;
71947;SDS011;63257;55.082;38.772;2023-07-16T06:50:49;14.55;;;9.80;;
71947;SDS011;63257;55.082;38.772;2023-07-16T06:53:15;13.73;;;10.55;;
71947;SDS011;63257;55.082;38.772;2023-07-16T06:55:41;14.50;;;11.10;;
71947;SDS011;63257;55.082;38.772;2023-07-16T06:58:10;14.48;;;10.90;;
71947;SDS011;63257;55.082;38.772;2023-07-16T07:00:37;13.65;;;10.25;;
71947;SDS011;63257;55.082;38.772;2023-07-16T07:03:03;17.43;;;10.30;;
71947;SDS011;63257;55.082;38.772;2023-07-16T07:05:28;14.57;;;10.23;;
71947;SDS011;63257;55.082;38.772;2023-07-16T07:07:54;14.98;;;10.95;;
71947;SDS011;63257;55.082;38.772;2023-07-16T07:10:20;20.07;;;10.83;;
71947;SDS011;63257;55.082;38.772;2023-07-16T07:12:46;13.00;;;9.90;;
71947;SDS011;63257;55.082;38.772;2023-07-16T07:15:11;13.83;;;10.20;;
71947;SDS011;63257;55.082;38.772;2023-07-16T07:17:38;13.13;;;10.30;;
71947;SDS011;63257;55.082;38.772;2023-07-16T07:20:05;13.20;;;9.90;;
71947;SDS011;63257;55.082;38.772;2023-07-16T07:22:32;13.40;;;9.75;;
71947;SDS011;63257;55.082;38.772;2023-07-16T07:24:58;13.20;;;9.68;;
71947;SDS011;63257;55.082;38.772;2023-07-16T07:27:23;12.95;;;9.60;;
71947;SDS011;63257;55.082;38.772;2023-07-16T07:29:49;13.13;;;9.30;;
71947;SDS011;63257;55.082;38.772;2023-07-16T07:32:19;11.45;;;8.38;;
71947;SDS011;63257;55.082;38.772;2023-07-16T07:34:46;11.13;;;7.82;;
71947;SDS011;63257;55.082;38.772;2023-07-16T07:37:12;11.02;;;8.35;;
71947;SDS011;63257;55.082;38.772;2023-07-16T07:39:38;13.30;;;9.43;;
71947;SDS011;63257;55.082;38.772;2023-07-16T07:42:04;12.53;;;9.47;;
71947;SDS011;63257;55.082;38.772;2023-07-16T07:44:30;14.05;;;10.13;;
71947;SDS011;63257;55.082;38.772;2023-07-16T07:46:57;13.90;;;9.40;;
71947;SDS011;63257;55.082;38.772;2023-07-16T07:49:23;12.53;;;9.47;;
71947;SDS011;63257;55.082;38.772;2023-07-16T07:51:48;13.23;;;10.05;;
71947;SDS011;63257;55.082;38.772;2023-07-16T07:54:15;12.52;;;9.60;;
71947;SDS011;63257;55.082;38.772;2023-07-16T07:56:41;14.40;;;10.30;;
71947;SDS011;63257;55.082;38.772;2023-07-16T07:59:07;15.00;;;10.13;;
71947;SDS011;63257;55.082;38.772;2023-07-16T08:01:33;12.82;;;9.90;;
71947;SDS011;63257;55.082;38.772;2023-07-16T08:03:59;13.07;;;9.60;;
71947;SDS011;63257;55.082;38.772;2023-07-16T08:06:25;11.70;;;8.73;;
71947;SDS011;63257;55.082;38.772;2023-07-16T08:08:51;11.23;;;8.90;;
71947;SDS011;63257;55.082;38.772;2023-07-16T08:11:17;11.27;;;8.32;;
71947;SDS011;63257;55.082;38.772;2023-07-16T08:13:43;11.18;;;9.00;;
71947;SDS011;63257;55.082;38.772;2023-07-16T08:16:09;12.47;;;9.07;;
71947;SDS011;63257;55.082;38.772;2023-07-16T08:18:35;12.65;;;9.85;;
71947;SDS011;63257;55.082;38.772;2023-07-16T08:21:01;14.53;;;10.10;;
71947;SDS011;63257;55.082;38.772;2023-07-16T08:23:27;27.75;;;16.45;;
71947;SDS011;63257;55.082;38.772;2023-07-16T08:25:52;18.27;;;11.90;;
71947;SDS011;63257;55.082;38.772;2023-07-16T08:28:18;18.13;;;11.70;;
71947;SDS011;63257;55.082;38.772;2023-07-16T08:30:47;12.40;;;8.95;;
71947;SDS011;63257;55.082;38.772;2023-07-16T08:33:14;11.27;;;7.55;;
71947;SDS011;63257;55.082;38.772;2023-07-16T08:35:41;10.87;;;7.83;;
71947;SDS011;63257;55.082;38.772;2023-07-16T08:38:07;10.98;;;7.75;;
71947;SDS011;63257;55.082;38.772;2023-07-16T08:40:37;12.32;;;8.30;;
71947;SDS011;63257;55.082;38.772;2023-07-16T08:43:03;10.43;;;8.00;;
71947;SDS011;63257;55.082;38.772;2023-07-16T08:45:31;12.95;;;9.50;;
71947;SDS011;63257;55.082;38.772;2023-07-16T08:48:05;14.90;;;9.80;;
71947;SDS011;63257;55.082;38.772;2023-07-16T08:50:31;15.52;;;10.38;;
71947;SDS011;63257;55.082;38.772;2023-07-16T08:53:00;16.60;;;10.32;;
71947;SDS011;63257;55.082;38.772;2023-07-16T08:55:27;12.95;;;9.65;;
71947;SDS011;63257;55.082;38.772;2023-07-16T08:57:53;13.65;;;9.25;;
71947;SDS011;63257;55.082;38.772;2023-07-16T09:00:19;13.10;;;9.77;;
71947;SDS011;63257;55.082;38.772;2023-07-16T09:02:45;12.02;;;8.30;;
71947;SDS011;63257;55.082;38.772;2023-07-16T09:05:12;13.23;;;9.18;;
71947;SDS011;63257;55.082;38.772;2023-07-16T09:07:40;11.80;;;8.20;;
71947;SDS011;63257;55.082;38.772;2023-07-16T09:10:06;10.63;;;7.83;;
71947;SDS011;63257;55.082;38.772;2023-07-16T09:12:32;9.82;;;7.65;;
71947;SDS011;63257;55.082;38.772;2023-07-16T09:14:58;9.57;;;7.50;;
71947;SDS011;63257;55.082;38.772;2023-07-16T09:17:24;12.73;;;8.10;;
71947;SDS011;63257;55.082;38.772;2023-07-16T09:19:51;10.02;;;7.30;;
71947;SDS011;63257;55.082;38.772;2023-07-16T09:22:17;9.32;;;7.10;;
71947;SDS011;63257;55.082;38.772;2023-07-16T09:24:45;9.60;;;7.47;;
71947;SDS011;63257;55.082;38.772;2023-07-16T09:27:12;9.75;;;7.20;;
71947;SDS011;63257;55.082;38.772;2023-07-16T09:29:38;8.27;;;6.10;;
71947;SDS011;63257;55.082;38.772;2023-07-16T09:32:05;9.10;;;6.30;;
71947;SDS011;63257;55.082;38.772;2023-07-16T09:34:31;7.43;;;6.20;;
71947;SDS011;63257;55.082;38.772;2023-07-16T09:36:57;7.65;;;6.10;;
71947;SDS011;63257;55.082;38.772;2023-07-16T09:39:24;8.45;;;5.75;;
71947;SDS011;63257;55.082;38.772;2023-07-16T09:41:51;8.10;;;5.80;;
71947;SDS011;63257;55.082;38.772;2023-07-16T09:44:17;8.65;;;6.55;;
71947;SDS011;63257;55.082;38.772;2023-07-16T09:46:44;7.95;;;6.07;;
71947;SDS011;63257;55.082;38.772;2023-07-16T09:49:11;7.57;;;5.82;;
71947;SDS011;63257;55.082;38.772;2023-07-16T09:51:38;6.97;;;5.07;;
71947;SDS011;63257;55.082;38.772;2023-07-16T09:54:04;8.40;;;5.43;;
71947;SDS011;63257;55.082;38.772;2023-07-16T09:56:39;9.05;;;5.60;;
71947;SDS011;63257;55.082;38.772;2023-07-16T09:59:16;8.20;;;5.53;;
71947;SDS011;63257;55.082;38.772;2023-07-16T10:01:43;8.45;;;6.30;;
71947;SDS011;63257;55.082;38.772;2023-07-16T10:04:10;8.20;;;5.50;;
71947;SDS011;63257;55.082;38.772;2023-07-16T10:06:53;8.67;;;5.57;;
71947;SDS011;63257;55.082;38.772;2023-07-16T10:09:35;10.13;;;5.90;;
71947;SDS011;63257;55.082;38.772;2023-07-16T10:17:19;7.60;;;5.90;;
71947;SDS011;63257;55.082;38.772;2023-07-16T10:19:47;7.53;;;5.57;;
71947;SDS011;63257;55.082;38.772;2023-07-16T10:22:30;7.95;;;6.00;;
71947;SDS011;63257;55.082;38.772;2023-07-16T10:25:08;8.85;;;6.00;;
71947;SDS011;63257;55.082;38.772;2023-07-16T10:27:36;8.25;;;5.57;;
71947;SDS011;63257;55.082;38.772;2023-07-16T10:30:03;6.97;;;4.97;;
71947;SDS011;63257;55.082;38.772;2023-07-16T10:32:32;7.83;;;5.97;;
71947;SDS011;63257;55.082;38.772;2023-07-16T10:34:59;7.13;;;6.07;;
71947;SDS011;63257;55.082;38.772;2023-07-16T10:37:25;9.77;;;6.68;;
71947;SDS011;63257;55.082;38.772;2023-07-16T10:39:52;8.02;;;5.90;;
71947;SDS011;63257;55.082;38.772;2023-07-16T10:42:23;9.13;;;5.60;;
71947;SDS011;63257;55.082;38.772;2023-07-16T10:44:49;9.77;;;6.03;;
71947;SDS011;63257;55.082;38.772;2023-07-16T10:47:24;10.73;;;6.45;;
71947;SDS011;63257;55.082;38.772;2023-07-16T10:49:51;7.80;;;6.03;;
71947;SDS011;63257;55.082;38.772;2023-07-16T10:52:17;8.18;;;5.68;;
71947;SDS011;63257;55.082;38.772;2023-07-16T10:54:43;8.32;;;6.28;;
71947;SDS011;63257;55.082;38.772;2023-07-16T10:57:10;16.80;;;6.47;;
71947;SDS011;63257;55.082;38.772;2023-07-16T10:59:38;7.75;;;6.55;;
71947;SDS011;63257;55.082;38.772;2023-07-16T11:02:08;8.93;;;6.25;;
71947;SDS011;63257;55.082;38.772;2023-07-16T11:04:37;9.75;;;6.97;;
71947;SDS011;63257;55.082;38.772;2023-07-16T11:07:10;7.53;;;6.20;;
71947;SDS011;63257;55.082;38.772;2023-07-16T11:09:41;8.27;;;6.60;;
71947;SDS011;63257;55.082;38.772;2023-07-16T11:12:10;10.43;;;6.45;;
71947;SDS011;63257;55.082;38.772;2023-07-16T11:14:47;11.35;;;9.45;;
71947;SDS011;63257;55.082;38.772;2023-07-16T11:17:17;7.60;;;6.20;;
71947;SDS011;63257;55.082;38.772;2023-07-16T11:19:47;10.10;;;7.22;;
71947;SDS011;63257;55.082;38.772;2023-07-16T11:22:14;8.18;;;6.97;;
71947;SDS011;63257;55.082;38.772;2023-07-16T11:24:41;9.95;;;7.18;;
71947;SDS011;63257;55.082;38.772;2023-07-16T11:27:16;9.35;;;7.72;;
71947;SDS011;63257;55.082;38.772;2023-07-16T11:29:54;9.07;;;6.10;;
71947;SDS011;63257;55.082;38.772;2023-07-16T11:34:59;7.47;;;6.60;;
71947;SDS011;63257;55.082;38.772;2023-07-16T11:37:27;8.20;;;7.07;;
71947;SDS011;63257;55.082;38.772;2023-07-16T11:39:55;9.20;;;6.90;;
71947;SDS011;63257;55.082;38.772;2023-07-16T11:44:58;8.15;;;6.00;;
71947;SDS011;63257;55.082;38.772;2023-07-16T11:47:25;7.20;;;5.18;;
71947;SDS011;63257;55.082;38.772;2023-07-16T11:49:51;7.95;;;6.60;;
71947;SDS011;63257;55.082;38.772;2023-07-16T11:52:26;10.02;;;6.30;;
71947;SDS011;63257;55.082;38.772;2023-07-16T11:54:54;8.33;;;6.00;;
71947;SDS011;63257;55.082;38.772;2023-07-16T11:57:22;7.82;;;6.80;;
71947;SDS011;63257;55.082;38.772;2023-07-16T11:59:48;7.90;;;7.10;;
71947;SDS011;63257;55.082;38.772;2023-07-16T12:02:17;8.27;;;6.95;;
71947;SDS011;63257;55.082;38.772;2023-07-16T12:04:44;7.78;;;6.75;;
71947;SDS011;63257;55.082;38.772;2023-07-16T12:07:09;7.20;;;5.20;;
71947;SDS011;63257;55.082;38.772;2023-07-16T12:09:35;8.13;;;7.13;;
71947;SDS011;63257;55.082;38.772;2023-07-16T12:12:01;8.48;;;7.57;;
71947;SDS011;63257;55.082;38.772;2023-07-16T12:14:28;8.20;;;6.90;;
71947;SDS011;63257;55.082;38.772;2023-07-16T12:16:54;7.57;;;6.78;;
71947;SDS011;63257;55.082;38.772;2023-07-16T12:19:22;10.18;;;8.50;;
71947;SDS011;63257;55.082;38.772;2023-07-16T12:21:48;9.35;;;6.93;;
71947;SDS011;63257;55.082;38.772;2023-07-16T12:24:13;8.00;;;7.20;;
71947;SDS011;63257;55.082;38.772;2023-07-16T12:26:39;8.00;;;6.63;;
71947;SDS011;63257;55.082;38.772;2023-07-16T12:29:05;8.00;;;6.10;;
71947;SDS011;63257;55.082;38.772;2023-07-16T12:31:31;9.20;;;5.80;;
71947;SDS011;63257;55.082;38.772;2023-07-16T12:33:57;9.80;;;8.18;;
71947;SDS011;63257;55.082;38.772;2023-07-16T12:36:24;9.43;;;7.55;;
71947;SDS011;63257;55.082;38.772;2023-07-16T12:38:50;9.53;;;7.97;;
71947;SDS011;63257;55.082;38.772;2023-07-16T12:41:16;10.05;;;7.55;;
71947;SDS011;63257;55.082;38.772;2023-07-16T12:43:42;11.35;;;7.47;;
71947;SDS011;63257;55.082;38.772;2023-07-16T12:46:08;13.13;;;6.78;;
71947;SDS011;63257;55.082;38.772;2023-07-16T12:48:34;9.18;;;7.75;;
71947;SDS011;63257;55.082;38.772;2023-07-16T12:51:00;10.98;;;8.10;;
71947;SDS011;63257;55.082;38.772;2023-07-16T12:53:26;10.82;;;7.32;;
71947;SDS011;63257;55.082;38.772;2023-07-16T12:55:52;10.65;;;7.40;;
71947;SDS011;63257;55.082;38.772;2023-07-16T12:58:18;8.40;;;6.75;;
71947;SDS011;63257;55.082;38.772;2023-07-16T13:00:44;9.18;;;6.40;;
71947;SDS011;63257;55.082;38.772;2023-07-16T13:03:10;8.03;;;6.37;;
71947;SDS011;63257;55.082;38.772;2023-07-16T13:05:44;8.60;;;6.43;;
71947;SDS011;63257;55.082;38.772;2023-07-16T13:08:12;9.68;;;7.00;;
71947;SDS011;63257;55.082;38.772;2023-07-16T13:10:38;10.75;;;7.53;;
71947;SDS011;63257;55.082;38.772;2023-07-16T13:13:05;9.40;;;8.10;;
71947;SDS011;63257;55.082;38.772;2023-07-16T13:15:31;8.88;;;6.80;;
71947;SDS011;63257;55.082;38.772;2023-07-16T13:17:58;8.90;;;6.75;;
71947;SDS011;63257;55.082;38.772;2023-07-16T13:20:24;8.90;;;6.85;;
71947;SDS011;63257;55.082;38.772;2023-07-16T13:22:49;11.30;;;8.00;;
71947;SDS011;63257;55.082;38.772;2023-07-16T13:25:16;9.43;;;7.60;;
71947;SDS011;63257;55.082;38.772;2023-07-16T13:27:42;8.18;;;7.30;;
71947;SDS011;63257;55.082;38.772;2023-07-16T13:30:08;8.47;;;7.57;;
71947;SDS011;63257;55.082;38.772;2023-07-16T13:32:34;8.75;;;6.85;;
71947;SDS011;63257;55.082;38.772;2023-07-16T13:35:00;10.07;;;7.60;;
71947;SDS011;63257;55.082;38.772;2023-07-16T13:37:30;12.13;;;9.55;;
71947;SDS011;63257;55.082;38.772;2023-07-16T13:39:56;11.00;;;8.60;;
71947;SDS011;63257;55.082;38.772;2023-07-16T13:42:21;9.20;;;7.88;;
71947;SDS011;63257;55.082;38.772;2023-07-16T13:44:47;10.27;;;7.90;;
71947;SDS011;63257;55.082;38.772;2023-07-16T13:47:13;8.25;;;7.35;;
71947;SDS011;63257;55.082;38.772;2023-07-16T13:49:39;11.00;;;7.00;;
71947;SDS011;63257;55.082;38.772;2023-07-16T13:52:04;9.20;;;7.13;;
71947;SDS011;63257;55.082;38.772;2023-07-16T13:54:30;9.07;;;8.00;;
71947;SDS011;63257;55.082;38.772;2023-07-16T13:56:56;9.03;;;8.13;;
71947;SDS011;63257;55.082;38.772;2023-07-16T13:59:22;9.07;;;8.07;;
71947;SDS011;63257;55.082;38.772;2023-07-16T14:01:58;9.63;;;8.20;;
71947;SDS011;63257;55.082;38.772;2023-07-16T14:04:25;9.13;;;8.25;;
71947;SDS011;63257;55.082;38.772;2023-07-16T14:06:51;9.13;;;8.10;;
71947;SDS011;63257;55.082;38.772;2023-07-16T14:09:18;8.10;;;7.30;;
71947;SDS011;63257;55.082;38.772;2023-07-16T14:11:45;8.77;;;7.03;;
71947;SDS011;63257;55.082;38.772;2023-07-16T14:14:14;9.10;;;7.63;;
71947;SDS011;63257;55.082;38.772;2023-07-16T14:16:40;7.70;;;6.80;;
71947;SDS011;63257;55.082;38.772;2023-07-16T14:19:07;7.95;;;7.15;;
71947;SDS011;63257;55.082;38.772;2023-07-16T14:21:33;9.55;;;7.43;;
71947;SDS011;63257;55.082;38.772;2023-07-16T14:23:58;9.10;;;7.03;;
71947;SDS011;63257;55.082;38.772;2023-07-16T14:26:24;8.15;;;7.10;;
71947;SDS011;63257;55.082;38.772;2023-07-16T14:28:50;8.53;;;7.63;;
71947;SDS011;63257;55.082;38.772;2023-07-16T14:31:16;7.70;;;6.55;;
71947;SDS011;63257;55.082;38.772;2023-07-16T14:33:42;7.72;;;6.93;;
71947;SDS011;63257;55.082;38.772;2023-07-16T14:36:07;6.87;;;6.17;;